Time;durP1;ratioP1;P1;durP2;ratioP2;P2;SDS_P1;SDS_P2;PMS_P1;PMS_P2;Temp;Humidity;BMP_temperature;BMP_pressure;BME280_temperature;BME280_humidity;BME280_pressure;Samples;Min_cycle;Max_cycle;Signal;HPM_P1;HPM_P2
2023/12/02 00:02:09;;;;;;;30.15;15.27;;;;;;;;;;5147629;27;20466;-75
2023/12/02 00:04:35;;;;;;;24.65;13.65;;;;;;;;;;5147115;27;20408;-74
2023/12/02 00:07:02;;;;;;;28.67;14.13;;;;;;;;;;5148770;27;20874;-75
2023/12/02 00:09:28;;;;;;;24.73;13.77;;;;;;;;;;5147235;27;20058;-73
2023/12/02 00:11:54;;;;;;;26.48;14.52;;;;;;;;;;5146856;27;20047;-75
2023/12/02 00:14:21;;;;;;;25.08;13.38;;;;;;;;;;5147442;27;20055;-74
2023/12/02 00:16:47;;;;;;;26.58;13.93;;;;;;;;;;5147142;27;20058;-75
2023/12/02 00:19:14;;;;;;;24.67;13.77;;;;;;;;;;5145671;27;20039;-74
2023/12/02 00:21:40;;;;;;;24.38;14.43;;;;;;;;;;5147060;27;20577;-75
2023/12/02 00:24:07;;;;;;;21.63;13.05;;;;;;;;;;5148254;27;20131;-75
2023/12/02 00:26:33;;;;;;;25.23;13.10;;;;;;;;;;5149268;27;20553;-74
2023/12/02 00:28:59;;;;;;;28.75;14.30;;;;;;;;;;5146645;27;20567;-74
2023/12/02 00:31:26;;;;;;;28.27;15.10;;;;;;;;;;5146010;27;20150;-74
2023/12/02 00:33:52;;;;;;;23.50;13.02;;;;;;;;;;5146015;27;20051;-74
2023/12/02 00:36:19;;;;;;;22.08;13.00;;;;;;;;;;5145148;27;20529;-74
2023/12/02 00:38:45;;;;;;;24.67;14.30;;;;;;;;;;5145621;27;20051;-74
2023/12/02 00:41:11;;;;;;;25.08;13.55;;;;;;;;;;5146011;27;20141;-74
2023/12/02 00:43:38;;;;;;;24.70;14.43;;;;;;;;;;5146348;27;20452;-74
2023/12/02 00:46:04;;;;;;;24.20;13.68;;;;;;;;;;5144418;27;20442;-74
2023/12/02 00:48:31;;;;;;;28.20;13.88;;;;;;;;;;5145765;27;20055;-74
2023/12/02 00:50:57;;;;;;;26.63;14.48;;;;;;;;;;5146041;27;20054;-74
2023/12/02 00:53:24;;;;;;;25.58;13.38;;;;;;;;;;5145947;27;20059;-74
2023/12/02 00:55:50;;;;;;;24.15;14.30;;;;;;;;;;5146263;27;20055;-74
2023/12/02 00:58:17;;;;;;;24.88;14.60;;;;;;;;;;5146117;27;20093;-74
2023/12/02 01:00:53;;;;;;;28.40;14.43;;;;;;;;;;5145490;27;21047;-75
2023/12/02 01:03:19;;;;;;;25.73;13.73;;;;;;;;;;5146270;27;20138;-74
2023/12/02 01:05:45;;;;;;;25.17;13.52;;;;;;;;;;5146553;27;20043;-75
2023/12/02 01:08:12;;;;;;;27.77;15.25;;;;;;;;;;5146789;27;20073;-74
2023/12/02 01:10:38;;;;;;;27.33;15.07;;;;;;;;;;5145899;27;20086;-75
2023/12/02 01:13:05;;;;;;;31.05;15.02;;;;;;;;;;5145848;27;20055;-74
2023/12/02 01:15:31;;;;;;;26.83;14.40;;;;;;;;;;5144905;27;20096;-75
2023/12/02 01:17:57;;;;;;;27.83;14.90;;;;;;;;;;5144345;27;20100;-74
2023/12/02 01:20:24;;;;;;;27.55;14.77;;;;;;;;;;5145963;27;20496;-74
2023/12/02 01:22:50;;;;;;;24.95;14.23;;;;;;;;;;5146203;27;20554;-74
2023/12/02 01:25:17;;;;;;;31.10;13.80;;;;;;;;;;5145785;27;20153;-74
2023/12/02 01:27:43;;;;;;;27.52;15.10;;;;;;;;;;5146170;27;20352;-74
2023/12/02 01:30:10;;;;;;;27.52;15.93;;;;;;;;;;5145526;27;20078;-75
2023/12/02 01:32:36;;;;;;;28.58;15.25;;;;;;;;;;5150313;27;20054;-74
2023/12/02 01:35:02;;;;;;;30.20;15.32;;;;;;;;;;5149321;27;20047;-74
2023/12/02 01:37:29;;;;;;;28.92;14.30;;;;;;;;;;5148806;27;20158;-74
2023/12/02 01:39:55;;;;;;;27.65;14.98;;;;;;;;;;5148889;27;20496;-74
2023/12/02 01:42:22;;;;;;;26.27;15.18;;;;;;;;;;5149581;27;20112;-74
2023/12/02 01:44:48;;;;;;;29.20;15.55;;;;;;;;;;5148740;27;20043;-74
2023/12/02 01:47:15;;;;;;;27.42;14.82;;;;;;;;;;5148975;27;20055;-74
2023/12/02 01:49:42;;;;;;;23.80;14.73;;;;;;;;;;5149944;27;20055;-74
2023/12/02 01:52:08;;;;;;;24.13;14.10;;;;;;;;;;5149170;27;20054;-74
2023/12/02 01:54:35;;;;;;;27.60;15.43;;;;;;;;;;5148836;27;20142;-74
2023/12/02 01:57:02;;;;;;;27.73;14.10;;;;;;;;;;5149158;27;20043;-74
2023/12/02 01:59:29;;;;;;;27.35;14.90;;;;;;;;;;5147863;27;20055;-75
2023/12/02 02:01:56;;;;;;;26.25;13.48;;;;;;;;;;5147272;27;20075;-74
2023/12/02 02:04:23;;;;;;;27.83;14.60;;;;;;;;;;5149725;27;20050;-75
2023/12/02 02:06:49;;;;;;;27.25;14.73;;;;;;;;;;5148965;27;20423;-75
2023/12/02 02:09:16;;;;;;;28.02;15.27;;;;;;;;;;5149100;27;20051;-75
2023/12/02 02:11:42;;;;;;;29.23;14.25;;;;;;;;;;5149014;27;20244;-74
2023/12/02 02:14:08;;;;;;;28.13;13.98;;;;;;;;;;5148129;27;20791;-75
2023/12/02 02:16:35;;;;;;;27.42;14.20;;;;;;;;;;5148085;27;20047;-74
2023/12/02 02:19:01;;;;;;;28.30;15.13;;;;;;;;;;5148612;27;20059;-75
2023/12/02 02:21:27;;;;;;;26.95;13.50;;;;;;;;;;5148225;27;20375;-75
2023/12/02 02:23:54;;;;;;;29.52;14.63;;;;;;;;;;5148585;27;20055;-74
2023/12/02 02:26:20;;;;;;;27.20;14.52;;;;;;;;;;5148205;27;20053;-75
2023/12/02 02:28:47;;;;;;;32.60;16.02;;;;;;;;;;5147793;27;20135;-75
2023/12/02 02:31:13;;;;;;;30.35;14.98;;;;;;;;;;5148507;27;20058;-75
2023/12/02 02:33:39;;;;;;;26.42;14.98;;;;;;;;;;5148266;27;20431;-75
2023/12/02 02:36:06;;;;;;;28.48;14.80;;;;;;;;;;5147739;27;20541;-75
2023/12/02 02:38:32;;;;;;;31.42;15.77;;;;;;;;;;5148080;27;20051;-75
2023/12/02 02:40:59;;;;;;;26.55;14.60;;;;;;;;;;5147648;27;20055;-75
2023/12/02 02:43:25;;;;;;;27.23;14.13;;;;;;;;;;5147272;27;20043;-75
2023/12/02 02:45:52;;;;;;;28.23;14.70;;;;;;;;;;5148886;27;20047;-74
2023/12/02 02:48:18;;;;;;;28.40;14.65;;;;;;;;;;5148484;27;20236;-74
2023/12/02 02:50:45;;;;;;;28.95;14.82;;;;;;;;;;5148404;27;20047;-75
2023/12/02 02:53:11;;;;;;;30.40;15.60;;;;;;;;;;5148276;27;20083;-75
2023/12/02 02:55:37;;;;;;;27.88;14.13;;;;;;;;;;5147765;27;20135;-75
2023/12/02 02:58:04;;;;;;;35.17;14.85;;;;;;;;;;5147782;27;20496;-75
2023/12/02 03:00:30;;;;;;;28.63;15.27;;;;;;;;;;5148043;27;20077;-75
2023/12/02 03:02:57;;;;;;;30.70;15.25;;;;;;;;;;5148055;27;20241;-75
2023/12/02 03:05:23;;;;;;;27.52;14.95;;;;;;;;;;5147716;27;20139;-75
2023/12/02 03:07:53;;;;;;;27.90;15.02;;;;;;;;;;5148320;27;20043;-76
2023/12/02 03:10:19;;;;;;;33.83;16.15;;;;;;;;;;5148694;27;20096;-75
2023/12/02 03:12:46;;;;;;;24.17;13.95;;;;;;;;;;5148102;27;20583;-74
2023/12/02 03:15:12;;;;;;;28.20;15.15;;;;;;;;;;5149597;27;20340;-75
2023/12/02 03:17:39;;;;;;;31.85;16.17;;;;;;;;;;5149807;27;20051;-75
2023/12/02 03:20:06;;;;;;;32.65;15.25;;;;;;;;;;5149691;27;20130;-75
2023/12/02 03:22:32;;;;;;;28.67;15.90;;;;;;;;;;5149931;27;20048;-74
2023/12/02 03:24:58;;;;;;;30.67;16.25;;;;;;;;;;5149321;27;20057;-75
2023/12/02 03:27:25;;;;;;;30.73;15.80;;;;;;;;;;5148443;27;20051;-75
2023/12/02 03:29:51;;;;;;;31.05;15.63;;;;;;;;;;5148329;27;20073;-75
2023/12/02 03:32:18;;;;;;;28.30;16.08;;;;;;;;;;5148190;27;20082;-75
2023/12/02 03:34:44;;;;;;;24.25;14.35;;;;;;;;;;5147554;27;20051;-76
2023/12/02 03:37:11;;;;;;;29.98;14.48;;;;;;;;;;5147639;27;20424;-76
2023/12/02 03:39:37;;;;;;;27.05;15.13;;;;;;;;;;5147293;27;20686;-75
2023/12/02 03:42:04;;;;;;;28.63;15.00;;;;;;;;;;5146765;27;20139;-76
2023/12/02 03:44:30;;;;;;;34.58;16.73;;;;;;;;;;5145423;27;20100;-74
2023/12/02 03:46:56;;;;;;;30.13;15.05;;;;;;;;;;5147430;27;20488;-76
2023/12/02 03:49:23;;;;;;;25.17;14.60;;;;;;;;;;5147252;27;20091;-73
2023/12/02 03:51:50;;;;;;;28.25;15.40;;;;;;;;;;5146789;27;20544;-75
2023/12/02 03:54:16;;;;;;;29.02;15.60;;;;;;;;;;5146497;27;20531;-75
2023/12/02 03:56:43;;;;;;;32.83;15.88;;;;;;;;;;5146726;27;20529;-76
2023/12/02 03:59:09;;;;;;;29.33;16.05;;;;;;;;;;5147679;27;20051;-75
2023/12/02 04:01:36;;;;;;;29.27;16.10;;;;;;;;;;5146922;27;20530;-75
2023/12/02 04:04:02;;;;;;;27.45;15.52;;;;;;;;;;5147261;27;20081;-75
2023/12/02 04:06:29;;;;;;;28.60;15.65;;;;;;;;;;5146731;27;20051;-74
2023/12/02 04:08:55;;;;;;;32.78;15.70;;;;;;;;;;5146785;27;20054;-74
2023/12/02 04:11:22;;;;;;;32.35;15.80;;;;;;;;;;5147034;27;20058;-75
2023/12/02 04:13:49;;;;;;;31.05;16.38;;;;;;;;;;5147460;27;20162;-75
2023/12/02 04:16:15;;;;;;;28.00;14.98;;;;;;;;;;5146554;27;20078;-74
2023/12/02 04:18:42;;;;;;;30.98;15.48;;;;;;;;;;5146623;27;20057;-74
2023/12/02 04:21:09;;;;;;;30.00;15.18;;;;;;;;;;5147389;27;20112;-74
2023/12/02 04:23:36;;;;;;;31.42;15.63;;;;;;;;;;5146195;27;20567;-74
2023/12/02 04:26:03;;;;;;;28.10;15.13;;;;;;;;;;5145090;27;20051;-74
2023/12/02 04:28:29;;;;;;;30.08;15.48;;;;;;;;;;5146540;27;20047;-75
2023/12/02 04:30:56;;;;;;;28.02;15.38;;;;;;;;;;5146684;27;20116;-74
2023/12/02 04:33:22;;;;;;;30.95;17.15;;;;;;;;;;5146619;27;20516;-74
2023/12/02 04:35:49;;;;;;;29.13;15.30;;;;;;;;;;5146292;27;20058;-75
2023/12/02 04:38:16;;;;;;;27.73;15.70;;;;;;;;;;5142736;27;20447;-75
2023/12/02 04:40:43;;;;;;;27.77;15.38;;;;;;;;;;5144824;27;20059;-74
2023/12/02 04:43:09;;;;;;;28.13;15.45;;;;;;;;;;5145340;27;20055;-74
2023/12/02 04:45:36;;;;;;;25.15;14.23;;;;;;;;;;5146313;27;20591;-75
2023/12/02 04:48:02;;;;;;;28.73;15.63;;;;;;;;;;5146736;27;20120;-75
2023/12/02 04:50:28;;;;;;;31.42;16.30;;;;;;;;;;5134970;27;20102;-74
2023/12/02 04:52:55;;;;;;;25.00;14.63;;;;;;;;;;5140644;27;20519;-74
2023/12/02 04:55:21;;;;;;;29.42;16.13;;;;;;;;;;5145448;27;20047;-74
2023/12/02 04:57:48;;;;;;;31.58;15.88;;;;;;;;;;5146510;27;20057;-75
2023/12/02 05:00:14;;;;;;;27.27;14.23;;;;;;;;;;5146116;27;20063;-75
2023/12/02 05:02:42;;;;;;;29.48;15.23;;;;;;;;;;5143674;27;20393;-75
2023/12/02 05:05:09;;;;;;;27.58;14.98;;;;;;;;;;5136836;27;20079;-75
2023/12/02 05:07:36;;;;;;;32.55;15.60;;;;;;;;;;5136245;27;20073;-73
2023/12/02 05:10:04;;;;;;;30.70;16.27;;;;;;;;;;5150365;27;20137;-74
2023/12/02 05:12:31;;;;;;;29.40;14.70;;;;;;;;;;5145715;27;20545;-75
2023/12/02 05:14:57;;;;;;;32.80;15.77;;;;;;;;;;5134503;27;20134;-74
2023/12/02 05:17:24;;;;;;;29.45;15.07;;;;;;;;;;5149564;27;20055;-74
2023/12/02 05:19:50;;;;;;;29.00;15.40;;;;;;;;;;5149679;27;20055;-74
2023/12/02 05:22:17;;;;;;;25.17;13.65;;;;;;;;;;5149138;27;20519;-74
2023/12/02 05:24:43;;;;;;;27.50;14.63;;;;;;;;;;5141781;27;20670;-74
2023/12/02 05:27:09;;;;;;;30.23;15.20;;;;;;;;;;5147414;27;20501;-74
2023/12/02 05:29:36;;;;;;;31.33;15.32;;;;;;;;;;5144308;27;20082;-75
2023/12/02 05:32:02;;;;;;;28.58;15.23;;;;;;;;;;5149640;27;20108;-75
2023/12/02 05:34:29;;;;;;;26.15;14.70;;;;;;;;;;5149392;27;20086;-74
2023/12/02 05:36:55;;;;;;;28.38;15.23;;;;;;;;;;5148787;27;20890;-74
2023/12/02 05:39:21;;;;;;;25.83;14.82;;;;;;;;;;5150017;27;20055;-75
2023/12/02 05:41:48;;;;;;;25.45;15.10;;;;;;;;;;5148758;27;20047;-75
2023/12/02 05:44:14;;;;;;;27.92;14.50;;;;;;;;;;5149376;27;20051;-75
2023/12/02 05:46:43;;;;;;;29.17;15.32;;;;;;;;;;5148276;27;20081;-75
2023/12/02 05:49:09;;;;;;;31.27;16.00;;;;;;;;;;5148620;27;20058;-75
2023/12/02 05:51:39;;;;;;;30.15;16.23;;;;;;;;;;5144039;27;20051;-75
2023/12/02 05:54:09;;;;;;;26.35;14.75;;;;;;;;;;5138513;27;20047;-75
2023/12/02 05:56:35;;;;;;;31.75;15.80;;;;;;;;;;5147034;27;20063;-76
2023/12/02 05:59:02;;;;;;;31.95;16.48;;;;;;;;;;5149138;27;20100;-76
2023/12/02 06:01:28;;;;;;;29.75;16.30;;;;;;;;;;5148968;27;20044;-75
2023/12/02 06:03:56;;;;;;;29.52;16.35;;;;;;;;;;5146323;27;20083;-75
2023/12/02 06:06:23;;;;;;;30.63;16.90;;;;;;;;;;5148804;27;20055;-75
2023/12/02 06:08:49;;;;;;;32.67;15.80;;;;;;;;;;5149703;27;20051;-75
2023/12/02 06:11:15;;;;;;;31.60;16.13;;;;;;;;;;5148696;27;20104;-75
2023/12/02 06:13:42;;;;;;;28.42;15.70;;;;;;;;;;5148682;27;20047;-75
2023/12/02 06:16:08;;;;;;;32.95;15.77;;;;;;;;;;5145487;27;20051;-75
2023/12/02 06:18:35;;;;;;;32.22;16.58;;;;;;;;;;5138449;27;20055;-75
2023/12/02 06:21:02;;;;;;;37.38;17.98;;;;;;;;;;5139498;27;20143;-74
2023/12/02 06:23:28;;;;;;;35.10;16.63;;;;;;;;;;5144984;27;20134;-75
2023/12/02 06:25:55;;;;;;;33.83;16.83;;;;;;;;;;5148625;27;20142;-74
2023/12/02 06:28:21;;;;;;;32.13;15.52;;;;;;;;;;5148997;27;20051;-75
2023/12/02 06:30:48;;;;;;;33.40;17.05;;;;;;;;;;5149344;27;20058;-75
2023/12/02 06:33:14;;;;;;;30.60;14.73;;;;;;;;;;5149007;27;20455;-74
2023/12/02 06:35:41;;;;;;;34.53;17.08;;;;;;;;;;5148709;27;20083;-75
2023/12/02 06:38:07;;;;;;;32.25;15.93;;;;;;;;;;5145628;27;20115;-74
2023/12/02 06:40:34;;;;;;;35.97;17.00;;;;;;;;;;5149012;27;20516;-75
2023/12/02 06:43:01;;;;;;;34.85;17.35;;;;;;;;;;5148842;27;20055;-74
2023/12/02 06:45:27;;;;;;;33.03;16.58;;;;;;;;;;5148536;27;20134;-74
2023/12/02 06:47:54;;;;;;;33.75;17.48;;;;;;;;;;5148685;27;20128;-75
2023/12/02 06:50:22;;;;;;;36.97;16.20;;;;;;;;;;5147541;27;20058;-75
2023/12/02 06:52:50;;;;;;;33.78;17.08;;;;;;;;;;5148666;27;20135;-75
2023/12/02 06:55:17;;;;;;;34.45;16.65;;;;;;;;;;5136668;27;20052;-74
2023/12/02 06:57:46;;;;;;;37.08;17.48;;;;;;;;;;5146049;27;20059;-75
2023/12/02 07:00:13;;;;;;;33.65;16.30;;;;;;;;;;5148411;27;20156;-74
2023/12/02 07:02:41;;;;;;;33.72;16.95;;;;;;;;;;5147841;27;20058;-75
2023/12/02 07:05:08;;;;;;;35.55;16.70;;;;;;;;;;5147573;27;20139;-75
2023/12/02 07:07:34;;;;;;;36.03;16.73;;;;;;;;;;5147584;27;20104;-74
2023/12/02 07:10:01;;;;;;;32.25;15.63;;;;;;;;;;5147592;27;20473;-74
2023/12/02 07:12:27;;;;;;;31.67;16.35;;;;;;;;;;5135027;27;20588;-74
2023/12/02 07:14:54;;;;;;;36.55;17.48;;;;;;;;;;5127141;27;20507;-74
2023/12/02 07:17:20;;;;;;;37.20;16.30;;;;;;;;;;5132886;27;20051;-74
2023/12/02 07:19:47;;;;;;;36.70;19.00;;;;;;;;;;5146963;27;20047;-74
2023/12/02 07:22:13;;;;;;;32.33;16.73;;;;;;;;;;5147636;27;20047;-75
2023/12/02 07:24:40;;;;;;;37.15;17.40;;;;;;;;;;5146392;27;20610;-74
2023/12/02 07:27:06;;;;;;;38.90;17.67;;;;;;;;;;5147826;27;20058;-74
2023/12/02 07:29:33;;;;;;;36.45;16.33;;;;;;;;;;5133773;27;20591;-74
2023/12/02 07:32:02;;;;;;;36.30;17.75;;;;;;;;;;5131819;27;20107;-74
2023/12/02 07:34:29;;;;;;;33.35;17.05;;;;;;;;;;5147269;27;20047;-74
2023/12/02 07:36:56;;;;;;;37.53;17.90;;;;;;;;;;5146228;27;20456;-75
2023/12/02 07:39:22;;;;;;;31.15;16.35;;;;;;;;;;5147991;27;20508;-74
2023/12/02 07:41:49;;;;;;;36.35;18.02;;;;;;;;;;5147963;27;20180;-74
2023/12/02 07:44:17;;;;;;;37.80;17.25;;;;;;;;;;5147076;27;20234;-73
2023/12/02 07:46:43;;;;;;;35.28;17.98;;;;;;;;;;5131899;27;20047;-74
2023/12/02 07:49:10;;;;;;;37.42;17.95;;;;;;;;;;5126388;27;20059;-74
2023/12/02 07:51:36;;;;;;;31.90;16.10;;;;;;;;;;5144836;27;20182;-74
2023/12/02 07:54:02;;;;;;;36.50;18.73;;;;;;;;;;5147003;27;20054;-74
2023/12/02 07:56:29;;;;;;;37.75;17.70;;;;;;;;;;5146456;27;20108;-74
2023/12/02 07:58:55;;;;;;;37.33;17.02;;;;;;;;;;5146428;27;20075;-74
2023/12/02 08:01:22;;;;;;;40.03;19.15;;;;;;;;;;5147411;27;20104;-74
2023/12/02 08:03:48;;;;;;;40.83;17.85;;;;;;;;;;5147207;27;20534;-74
2023/12/02 08:06:15;;;;;;;34.03;17.83;;;;;;;;;;5146954;27;20083;-74
2023/12/02 08:08:41;;;;;;;38.03;17.23;;;;;;;;;;5146409;27;20130;-74
2023/12/02 08:11:07;;;;;;;38.65;17.50;;;;;;;;;;5146978;27;20563;-74
2023/12/02 08:13:34;;;;;;;39.03;18.77;;;;;;;;;;5146208;27;20047;-75
2023/12/02 08:16:00;;;;;;;36.70;17.40;;;;;;;;;;5146841;27;20300;-74
2023/12/02 08:18:26;;;;;;;35.60;18.33;;;;;;;;;;5145627;27;20055;-73
2023/12/02 08:20:53;;;;;;;44.17;20.73;;;;;;;;;;5145558;27;20133;-74
2023/12/02 08:23:19;;;;;;;37.13;17.77;;;;;;;;;;5146858;27;20091;-74
2023/12/02 08:25:45;;;;;;;38.53;17.95;;;;;;;;;;5146484;27;20181;-74
2023/12/02 08:28:12;;;;;;;35.72;18.50;;;;;;;;;;5141668;27;20057;-75
2023/12/02 08:30:38;;;;;;;36.75;18.05;;;;;;;;;;5143009;27;20127;-74
2023/12/02 08:33:04;;;;;;;34.40;16.90;;;;;;;;;;5145286;27;20070;-74
2023/12/02 08:35:31;;;;;;;36.83;17.90;;;;;;;;;;5146297;27;20058;-74
2023/12/02 08:37:57;;;;;;;35.67;17.58;;;;;;;;;;5129927;27;20051;-74
2023/12/02 08:40:24;;;;;;;34.40;17.25;;;;;;;;;;5125559;27;20051;-74
2023/12/02 08:42:50;;;;;;;38.67;18.60;;;;;;;;;;5128373;27;20136;-74
2023/12/02 08:45:17;;;;;;;35.28;17.83;;;;;;;;;;5130113;27;20665;-74
2023/12/02 08:47:43;;;;;;;34.53;17.77;;;;;;;;;;5140902;27;20147;-74
2023/12/02 08:50:09;;;;;;;36.50;18.20;;;;;;;;;;5126289;27;20051;-74
2023/12/02 08:52:36;;;;;;;36.33;17.67;;;;;;;;;;5125231;27;20043;-74
2023/12/02 08:55:02;;;;;;;38.75;18.50;;;;;;;;;;5138496;27;20055;-75
2023/12/02 08:57:29;;;;;;;39.67;21.27;;;;;;;;;;5145462;27;20054;-74
2023/12/02 08:59:55;;;;;;;36.80;18.55;;;;;;;;;;5145113;27;20047;-74
2023/12/02 09:02:22;;;;;;;39.35;18.85;;;;;;;;;;5145788;27;20062;-74
2023/12/02 09:04:48;;;;;;;37.20;19.65;;;;;;;;;;5145741;27;20096;-73
2023/12/02 09:07:14;;;;;;;36.70;18.48;;;;;;;;;;5145644;27;20184;-74
2023/12/02 09:09:42;;;;;;;37.63;17.02;;;;;;;;;;5145897;27;20055;-73
2023/12/02 09:12:08;;;;;;;36.72;17.00;;;;;;;;;;5145713;27;20147;-73
2023/12/02 09:14:35;;;;;;;38.40;17.95;;;;;;;;;;5145311;27;20160;-72
2023/12/02 09:17:02;;;;;;;36.67;17.52;;;;;;;;;;5146112;27;20578;-73
2023/12/02 09:19:37;;;;;;;34.67;17.48;;;;;;;;;;5138808;27;20036;-75
2023/12/02 09:22:04;;;;;;;37.45;18.05;;;;;;;;;;5146592;27;20518;-69
2023/12/02 09:24:31;;;;;;;41.63;19.90;;;;;;;;;;5141671;27;20065;-74
2023/12/02 09:26:57;;;;;;;37.53;17.10;;;;;;;;;;5125658;27;20095;-73
2023/12/02 09:29:27;;;;;;;35.10;17.65;;;;;;;;;;5124384;27;20052;-74
2023/12/02 09:31:53;;;;;;;35.63;18.15;;;;;;;;;;5125102;27;20048;-74
2023/12/02 09:34:48;;;;;;;35.65;18.20;;;;;;;;;;5125651;27;20052;-74
2023/12/02 09:37:30;;;;;;;36.80;18.17;;;;;;;;;;5124809;27;20089;-73
2023/12/02 09:39:59;;;;;;;33.03;18.38;;;;;;;;;;5125017;27;20084;-73
2023/12/02 09:42:26;;;;;;;38.35;17.92;;;;;;;;;;5125190;27;20518;-74
2023/12/02 09:44:55;;;;;;;43.53;19.88;;;;;;;;;;5125328;27;20435;-74
2023/12/02 09:47:22;;;;;;;38.28;19.55;;;;;;;;;;5125074;27;20059;-74
2023/12/02 09:49:49;;;;;;;41.38;19.63;;;;;;;;;;5126515;27;20124;-74
2023/12/02 09:52:15;;;;;;;37.92;19.00;;;;;;;;;;5128510;27;20055;-74
2023/12/02 09:54:56;;;;;;;35.70;18.17;;;;;;;;;;5129664;27;20183;-73
2023/12/02 09:57:38;;;;;;;41.33;20.05;;;;;;;;;;5128089;27;20054;-74
2023/12/02 10:00:15;;;;;;;36.60;18.42;;;;;;;;;;5128378;27;20600;-74
2023/12/02 10:02:58;;;;;;;37.38;19.25;;;;;;;;;;5127785;27;20099;-74
2023/12/02 10:05:25;;;;;;;38.63;18.60;;;;;;;;;;5128407;27;20467;-74
2023/12/02 10:07:54;;;;;;;36.63;18.95;;;;;;;;;;5128881;27;20044;-74
2023/12/02 10:10:22;;;;;;;37.17;18.70;;;;;;;;;;5129497;27;20052;-74
2023/12/02 10:13:10;;;;;;;37.88;18.90;;;;;;;;;;5133873;27;20529;-74
2023/12/02 10:15:39;;;;;;;37.40;19.40;;;;;;;;;;5127710;27;20087;-74
2023/12/02 10:18:10;;;;;;;36.35;18.52;;;;;;;;;;5128751;27;20056;-73
2023/12/02 10:20:38;;;;;;;35.50;17.17;;;;;;;;;;5127709;27;20080;-74
2023/12/02 10:23:12;;;;;;;40.55;18.98;;;;;;;;;;5128514;27;20060;-73
2023/12/02 10:25:48;;;;;;;36.95;19.48;;;;;;;;;;5160849;27;20055;-74
2023/12/02 10:28:24;;;;;;;35.53;18.13;;;;;;;;;;5127690;27;20087;-73
2023/12/02 10:30:51;;;;;;;42.42;19.10;;;;;;;;;;5128541;27;20128;-74
2023/12/02 10:33:27;;;;;;;39.13;19.75;;;;;;;;;;5127923;27;20054;-73
2023/12/02 10:35:55;;;;;;;39.65;19.85;;;;;;;;;;5127963;27;20062;-74
2023/12/02 10:38:26;;;;;;;39.03;20.15;;;;;;;;;;5127765;27;20121;-74
2023/12/02 10:40:58;;;;;;;39.30;18.52;;;;;;;;;;5127824;27;20075;-74
2023/12/02 10:43:32;;;;;;;43.03;19.33;;;;;;;;;;5127992;27;20563;-74
2023/12/02 10:45:59;;;;;;;39.10;18.27;;;;;;;;;;5127731;27;20554;-74
2023/12/02 10:48:25;;;;;;;44.13;19.58;;;;;;;;;;5127168;27;20501;-74
2023/12/02 10:50:52;;;;;;;40.95;20.55;;;;;;;;;;5128395;27;20598;-74
2023/12/02 10:53:22;;;;;;;43.30;19.80;;;;;;;;;;5128353;27;20051;-74
2023/12/02 10:55:55;;;;;;;41.33;20.63;;;;;;;;;;5127357;27;20132;-74
2023/12/02 10:58:22;;;;;;;40.88;19.73;;;;;;;;;;5128267;27;20056;-74
2023/12/02 11:00:51;;;;;;;39.70;18.63;;;;;;;;;;5146426;27;20083;-74
2023/12/02 11:03:18;;;;;;;42.20;19.85;;;;;;;;;;5147791;27;20537;-74
2023/12/02 11:05:45;;;;;;;39.78;18.05;;;;;;;;;;5147147;27;20058;-73
2023/12/02 11:08:17;;;;;;;36.78;18.50;;;;;;;;;;5145630;27;20052;-74
2023/12/02 11:10:47;;;;;;;39.88;19.08;;;;;;;;;;5146626;27;20123;-74
2023/12/02 11:13:23;;;;;;;37.40;19.17;;;;;;;;;;5127717;27;20498;-74
2023/12/02 11:16:08;;;;;;;34.45;17.50;;;;;;;;;;5142532;27;20058;-74
2023/12/02 11:18:41;;;;;;;39.70;19.42;;;;;;;;;;5147155;27;20134;-74
2023/12/02 11:21:13;;;;;;;36.17;17.98;;;;;;;;;;5146215;27;20050;-73
2023/12/02 11:23:57;;;;;;;37.28;18.67;;;;;;;;;;5145601;27;20058;-74
2023/12/02 11:26:34;;;;;;;37.22;18.10;;;;;;;;;;5146791;27;20050;-74
2023/12/02 11:29:06;;;;;;;37.20;18.67;;;;;;;;;;5147605;27;20397;-74
2023/12/02 11:31:43;;;;;;;41.70;20.52;;;;;;;;;;5146367;27;20055;-74
2023/12/02 11:34:17;;;;;;;41.10;19.42;;;;;;;;;;5147449;27;20055;-75
2023/12/02 11:36:55;;;;;;;33.97;17.20;;;;;;;;;;5147454;27;20512;-74
2023/12/02 11:39:22;;;;;;;38.72;19.50;;;;;;;;;;5147150;27;20059;-74
2023/12/02 11:41:58;;;;;;;40.50;19.05;;;;;;;;;;5142935;27;20047;-74
2023/12/02 11:44:39;;;;;;;40.15;19.75;;;;;;;;;;5144950;27;20047;-74
2023/12/02 11:47:08;;;;;;;38.13;19.52;;;;;;;;;;5147615;27;20056;-74
2023/12/02 11:49:53;;;;;;;38.15;18.63;;;;;;;;;;5145809;27;20571;-75
2023/12/02 11:52:38;;;;;;;39.53;18.70;;;;;;;;;;5145496;27;20535;-74
2023/12/02 11:55:29;;;;;;;41.20;19.38;;;;;;;;;;5144824;27;20746;-74
2023/12/02 11:57:58;;;;;;;38.22;18.75;;;;;;;;;;5134635;27;20130;-74
2023/12/02 12:00:32;;;;;;;35.03;18.15;;;;;;;;;;5146969;27;20055;-74
2023/12/02 12:03:08;;;;;;;39.45;18.58;;;;;;;;;;5147452;27;20058;-74
2023/12/02 12:05:45;;;;;;;38.67;18.25;;;;;;;;;;5143794;27;20913;-73
2023/12/02 12:08:18;;;;;;;34.13;18.77;;;;;;;;;;5142542;27;20443;-73
2023/12/02 12:10:49;;;;;;;37.30;17.95;;;;;;;;;;5146486;27;20447;-74
2023/12/02 12:13:19;;;;;;;31.27;16.80;;;;;;;;;;5145059;27;21043;-74
2023/12/02 12:15:45;;;;;;;36.30;18.17;;;;;;;;;;5144889;27;20083;-75
2023/12/02 12:18:13;;;;;;;36.50;18.17;;;;;;;;;;5145942;27;20099;-75
2023/12/02 12:20:42;;;;;;;37.53;19.23;;;;;;;;;;5144802;27;20139;-74
2023/12/02 12:23:08;;;;;;;31.63;17.33;;;;;;;;;;5145756;27;20108;-74
2023/12/02 12:25:35;;;;;;;37.40;17.23;;;;;;;;;;5144337;27;20124;-74
2023/12/02 12:28:04;;;;;;;33.88;17.55;;;;;;;;;;5145927;27;20178;-74
2023/12/02 12:30:46;;;;;;;35.35;18.50;;;;;;;;;;5144988;27;20055;-74
2023/12/02 12:33:17;;;;;;;34.42;18.08;;;;;;;;;;5146707;27;20066;-74
2023/12/02 12:35:44;;;;;;;33.75;17.55;;;;;;;;;;5146081;27;20054;-74
2023/12/02 12:38:10;;;;;;;33.03;16.70;;;;;;;;;;5145562;27;20100;-75
2023/12/02 12:40:41;;;;;;;31.77;16.80;;;;;;;;;;5146082;27;20047;-73
2023/12/02 12:43:08;;;;;;;33.03;17.02;;;;;;;;;;5143445;27;20056;-74
2023/12/02 12:45:37;;;;;;;34.92;18.23;;;;;;;;;;5136239;27;20054;-73
2023/12/02 12:48:04;;;;;;;38.22;18.15;;;;;;;;;;5138160;27;20062;-74
2023/12/02 12:50:34;;;;;;;35.88;18.20;;;;;;;;;;5134949;27;20093;-73
2023/12/02 12:53:11;;;;;;;33.95;17.33;;;;;;;;;;5135790;27;20057;-73
2023/12/02 12:55:42;;;;;;;33.13;16.70;;;;;;;;;;5136041;27;20733;-74
2023/12/02 12:58:13;;;;;;;33.65;16.63;;;;;;;;;;5135586;27;20100;-74
2023/12/02 13:00:42;;;;;;;39.05;19.67;;;;;;;;;;5136641;27;20134;-74
2023/12/02 13:03:18;;;;;;;32.17;16.83;;;;;;;;;;5136121;27;20051;-73
2023/12/02 13:05:47;;;;;;;35.92;16.95;;;;;;;;;;5136680;27;20048;-73
2023/12/02 13:08:32;;;;;;;35.58;17.00;;;;;;;;;;5136059;27;20055;-74
2023/12/02 13:11:00;;;;;;;33.53;18.38;;;;;;;;;;5131592;27;20087;-73
2023/12/02 13:13:30;;;;;;;37.00;18.40;;;;;;;;;;5135587;27;20138;-74
2023/12/02 13:15:58;;;;;;;33.90;17.95;;;;;;;;;;5132765;27;20152;-74
2023/12/02 13:18:28;;;;;;;35.03;18.13;;;;;;;;;;5145597;27;20587;-73
2023/12/02 13:20:54;;;;;;;32.03;17.33;;;;;;;;;;5144147;27;20424;-74
2023/12/02 13:23:23;;;;;;;37.03;17.75;;;;;;;;;;5178136;27;20522;-73
2023/12/02 13:25:51;;;;;;;38.45;17.88;;;;;;;;;;5140141;27;20044;-74
2023/12/02 13:28:22;;;;;;;35.25;17.67;;;;;;;;;;5135104;27;20139;-75
2023/12/02 13:30:50;;;;;;;34.60;18.00;;;;;;;;;;5145070;27;20073;-74
2023/12/02 13:33:35;;;;;;;36.35;18.90;;;;;;;;;;5142307;27;20062;-74
2023/12/02 13:36:06;;;;;;;34.33;17.30;;;;;;;;;;5146616;27;20056;-73
2023/12/02 13:38:34;;;;;;;36.13;18.48;;;;;;;;;;5148757;27;20047;-74
2023/12/02 13:41:19;;;;;;;34.00;16.95;;;;;;;;;;5149577;27;20524;-75
2023/12/02 13:43:45;;;;;;;38.60;18.03;;;;;;;;;;5149254;27;20370;-74
2023/12/02 13:46:15;;;;;;;39.78;20.17;;;;;;;;;;5148926;27;20611;-75
2023/12/02 13:48:57;;;;;;;34.13;18.70;;;;;;;;;;5148756;27;20051;-74
2023/12/02 13:51:23;;;;;;;33.80;17.13;;;;;;;;;;5147889;27;20055;-73
2023/12/02 13:54:01;;;;;;;38.38;17.85;;;;;;;;;;5148351;27;20130;-73
2023/12/02 13:56:36;;;;;;;32.63;17.20;;;;;;;;;;5148641;27;20051;-73
2023/12/02 13:59:22;;;;;;;33.90;18.00;;;;;;;;;;5148679;27;20131;-74
2023/12/02 14:01:55;;;;;;;34.97;18.90;;;;;;;;;;5130376;27;20488;-74
2023/12/02 14:04:22;;;;;;;32.85;18.13;;;;;;;;;;5148547;27;20047;-73
2023/12/02 14:07:07;;;;;;;33.78;17.75;;;;;;;;;;5149398;27;20047;-73
2023/12/02 14:09:37;;;;;;;34.25;18.13;;;;;;;;;;5148432;27;20051;-73
2023/12/02 14:12:19;;;;;;;35.72;17.60;;;;;;;;;;5149150;27;20137;-73
2023/12/02 14:14:46;;;;;;;36.92;18.63;;;;;;;;;;5148806;27;20724;-76
2023/12/02 14:17:12;;;;;;;40.50;18.27;;;;;;;;;;5149019;27;20055;-76
2023/12/02 14:19:47;;;;;;;39.67;20.75;;;;;;;;;;5148056;27;20051;-76
2023/12/02 14:22:32;;;;;;;37.47;19.40;;;;;;;;;;5147684;27;20066;-75
2023/12/02 14:24:58;;;;;;;38.47;18.70;;;;;;;;;;5148819;27;20140;-74